createdAt,value
2023-03-28T00:12:46.110Z,100036.28
2023-03-28T00:27:48.724Z,100024.53
2023-03-28T00:42:51.534Z,100014.41
2023-03-28T00:57:55.830Z,100008.02
2023-03-28T01:12:59.224Z,100014.08
2023-03-28T01:28:32.197Z,100010.45
2023-03-28T01:44:07.868Z,99996.30
2023-03-28T01:59:42.219Z,99994.91
2023-03-28T02:14:48.175Z,99984.77
2023-03-28T02:29:54.407Z,99978.73
2023-03-28T02:45:14.092Z,99982.71
2023-03-28T03:00:19.930Z,99990.83
2023-03-28T03:15:22.580Z,99993.20
2023-03-28T03:30:25.278Z,99997.90
2023-03-28T03:45:28.232Z,100005.29
2023-03-28T04:00:31.012Z,100002.34
2023-03-28T04:15:33.579Z,100002.98
2023-03-28T04:30:38.237Z,100027.44
2023-03-28T04:45:40.855Z,100051.92
2023-03-28T05:00:45.934Z,100084.13
2023-03-28T05:15:48.525Z,100120.92
2023-03-28T05:30:51.554Z,100133.33
2023-03-28T05:45:54.243Z,100166.21
2023-03-28T06:00:58.022Z,100196.25
2023-03-28T06:16:01.070Z,100216.73
2023-03-28T06:31:04.007Z,100243.33
2023-03-28T06:46:07.224Z,100268.98
2023-03-28T07:01:09.985Z,100301.83
2023-03-28T07:16:14.901Z,100325.33
2023-03-28T07:31:18.394Z,100359.14
2023-03-28T07:46:21.640Z,100360.77
2023-03-28T08:01:25.006Z,100393.13
2023-03-28T08:16:28.632Z,100418.34
2023-03-28T08:31:31.650Z,100432.92
2023-03-28T08:46:36.615Z,100444.06
2023-03-28T09:01:39.712Z,100443.25
2023-03-28T09:17:01.801Z,100449.08
2023-03-28T09:32:12.395Z,100482.15
2023-03-28T09:47:15.124Z,100503.51
2023-03-28T10:02:25.473Z,100533.95
2023-03-28T10:17:38.108Z,100532.97
2023-03-28T10:32:41.484Z,100551.84
2023-03-28T10:47:44.500Z,100544.46
2023-03-28T11:03:00.424Z,100567.02
2023-03-28T11:18:29.897Z,100568.92
2023-03-28T11:33:42.758Z,100598.67
2023-03-28T12:16:21.254Z,100656.02
2023-03-28T12:31:27.129Z,100642.36
2023-03-28T12:46:38.054Z,100640.37
2023-03-28T13:01:54.205Z,100666.37
2023-03-28T13:17:17.774Z,100667.67
2023-03-28T13:32:25.597Z,100682.02
2023-03-28T13:47:34.043Z,100693.45
2023-03-28T14:02:48.682Z,100681.28
2023-03-28T14:17:51.710Z,100681.73
2023-03-28T14:33:00.551Z,100697.19
2023-03-28T14:48:06.405Z,100698.58
2023-03-28T15:03:16.340Z,100726.47
2023-03-28T15:18:25.337Z,100748.25
2023-03-28T15:33:33.554Z,100761.68
2023-03-28T15:48:37.080Z,100779.05
2023-03-28T16:03:39.833Z,100793.04
2023-03-28T16:18:42.802Z,100799.25
2023-03-28T16:33:45.637Z,100807.46
2023-03-28T16:48:48.324Z,100830.52
2023-03-28T17:03:52.743Z,100847.56
2023-03-28T17:18:55.965Z,100860.23
2023-03-28T17:34:01.274Z,100882.14
2023-03-28T17:49:04.587Z,100883.94
2023-03-28T18:18:09.310Z,100929.29
2023-03-28T18:33:12.016Z,100931.83
2023-03-28T18:48:18.390Z,100941.84
2023-03-28T19:03:21.162Z,100954.98
2023-03-28T19:18:23.971Z,100954.98
2023-03-28T19:33:27.595Z,100956.45
2023-03-28T19:48:31.567Z,100954.39
2023-03-28T20:03:34.568Z,100960.34
2023-03-28T20:18:37.978Z,100961.63
2023-03-28T20:33:40.639Z,100954.98
2023-03-28T20:48:46.598Z,100952.45
2023-03-28T21:03:49.852Z,100952.27
2023-03-28T21:18:53.275Z,100945.02
2023-03-28T21:33:57.501Z,100948.08
2023-03-28T21:49:00.304Z,100962.16
2023-03-28T22:04:02.885Z,100968.84
2023-03-28T22:19:08.565Z,100980.17
2023-03-28T22:34:13.075Z,100982.77
2023-03-28T22:49:22.021Z,100974.27
2023-03-28T23:04:25.421Z,100967.54
2023-03-28T23:19:31.283Z,100961.32
2023-03-28T23:34:34.908Z,100945.66
2023-03-28T23:49:37.441Z,100950.20
